createdAt,value
2016-11-12T00:00:57.320Z,1012.88
2016-11-12T00:01:57.331Z,1012.86
2016-11-12T00:02:57.345Z,1012.87
2016-11-12T00:03:57.359Z,1012.9
2016-11-12T00:04:57.372Z,1012.88
2016-11-12T00:05:57.382Z,1012.88
2016-11-12T00:06:57.395Z,1012.85
2016-11-12T00:07:57.408Z,1012.87
2016-11-12T00:08:57.421Z,1012.85
2016-11-12T00:09:57.435Z,1012.86
2016-11-12T00:10:57.448Z,1012.87
2016-11-12T00:11:57.460Z,1012.79
2016-11-12T00:12:57.473Z,1012.85
2016-11-12T00:13:57.486Z,1012.85
2016-11-12T00:14:57.499Z,1012.82
2016-11-12T00:15:57.512Z,1012.85
2016-11-12T00:16:57.524Z,1012.86
2016-11-12T00:17:57.537Z,1012.84
2016-11-12T00:18:57.549Z,1012.8
2016-11-12T00:19:57.562Z,1012.84
2016-11-12T00:20:57.574Z,1012.81
2016-11-12T00:21:57.587Z,1012.83
2016-11-12T00:22:57.600Z,1012.78
2016-11-12T00:23:57.614Z,1012.82
2016-11-12T00:24:57.627Z,1012.8
2016-11-12T00:25:57.639Z,1012.81
2016-11-12T00:26:57.651Z,1012.81
2016-11-12T00:27:57.666Z,1012.81
2016-11-12T00:28:57.676Z,1012.79
2016-11-12T00:29:57.689Z,1012.79
2016-11-12T00:30:57.701Z,1012.78
2016-11-12T00:31:57.717Z,1012.77
2016-11-12T00:32:57.727Z,1012.73
2016-11-12T00:33:57.741Z,1012.73
2016-11-12T00:34:57.755Z,1012.71
2016-11-12T00:35:57.965Z,1012.71
2016-11-12T00:36:57.796Z,1012.72
2016-11-12T00:37:57.805Z,1012.72
2016-11-12T00:38:57.814Z,1012.68
2016-11-12T00:39:57.816Z,1012.7
2016-11-12T00:40:57.931Z,1012.66
2016-11-12T00:41:57.869Z,1012.72
2016-11-12T00:42:57.881Z,1012.7
2016-11-12T00:43:57.878Z,1012.72
2016-11-12T00:44:57.892Z,1012.74
2016-11-12T00:45:57.892Z,1012.7
2016-11-12T00:46:57.904Z,1012.74
2016-11-12T00:47:57.917Z,1012.74
2016-11-12T00:48:57.930Z,1012.75
2016-11-12T00:49:57.942Z,1012.76
2016-11-12T00:50:57.955Z,1012.74
2016-11-12T00:51:57.968Z,1012.77
2016-11-12T00:52:57.982Z,1012.73
2016-11-12T00:53:57.993Z,1012.77
2016-11-12T00:54:58.004Z,1012.73
2016-11-12T00:55:58.017Z,1012.75
2016-11-12T00:56:58.031Z,1012.75
2016-11-12T00:57:58.042Z,1012.75
2016-11-12T00:58:58.056Z,1012.75
2016-11-12T00:59:58.069Z,1012.71
2016-11-12T01:00:58.081Z,1012.69
2016-11-12T01:01:58.095Z,1012.7
2016-11-12T01:02:58.107Z,1012.66
2016-11-12T01:03:58.120Z,1012.65
2016-11-12T01:04:58.136Z,1012.68
2016-11-12T01:05:58.145Z,1012.69
2016-11-12T01:06:58.158Z,1012.66
2016-11-12T01:07:58.169Z,1012.69
2016-11-12T01:08:58.182Z,1012.7
2016-11-12T01:09:58.195Z,1012.66
2016-11-12T01:10:58.258Z,1012.65
2016-11-12T01:11:58.219Z,1012.68
2016-11-12T01:12:58.232Z,1012.68
2016-11-12T01:13:58.245Z,1012.7
2016-11-12T01:14:58.258Z,1012.73
2016-11-12T01:15:58.270Z,1012.71
2016-11-12T01:16:58.282Z,1012.74
2016-11-12T01:17:58.295Z,1012.76
2016-11-12T01:18:58.306Z,1012.75
2016-11-12T01:19:58.319Z,1012.77
2016-11-12T01:20:58.331Z,1012.77
2016-11-12T01:21:58.345Z,1012.8
2016-11-12T01:22:58.357Z,1012.79
2016-11-12T01:23:58.369Z,1012.77
2016-11-12T01:24:58.382Z,1012.77
2016-11-12T01:25:58.397Z,1012.78
2016-11-12T01:26:58.409Z,1012.79
2016-11-12T01:27:58.421Z,1012.81
2016-11-12T01:28:58.432Z,1012.81
2016-11-12T01:29:58.446Z,1012.83
2016-11-12T01:30:58.458Z,1012.87
2016-11-12T01:31:58.526Z,1012.84
2016-11-12T01:32:58.483Z,1012.89
2016-11-12T01:33:58.493Z,1012.88
2016-11-12T01:34:58.506Z,1012.9
2016-11-12T01:35:58.519Z,1012.9
2016-11-12T01:36:58.531Z,1012.95
2016-11-12T01:37:58.543Z,1012.92
2016-11-12T01:38:58.557Z,1012.94
2016-11-12T01:39:58.569Z,1012.99
2016-11-12T01:40:58.583Z,1012.9
2016-11-12T01:41:58.594Z,1012.9
2016-11-12T01:42:58.607Z,1012.91
2016-11-12T01:43:58.619Z,1012.87
2016-11-12T01:44:58.631Z,1012.88
2016-11-12T01:45:58.647Z,1012.89
2016-11-12T01:46:58.658Z,1012.83
2016-11-12T01:47:58.670Z,1012.88
2016-11-12T01:48:58.682Z,1012.9
2016-11-12T01:49:58.696Z,1012.93
2016-11-12T01:50:58.711Z,1012.93
2016-11-12T01:51:58.719Z,1012.93
2016-11-12T01:52:58.735Z,1012.94
2016-11-12T01:53:58.748Z,1012.95
2016-11-12T01:54:58.757Z,1012.97
2016-11-12T01:55:58.770Z,1012.98
2016-11-12T01:56:58.782Z,1013
2016-11-12T01:57:58.796Z,1013
2016-11-12T01:58:58.808Z,1012.99
2016-11-12T01:59:58.821Z,1012.98
2016-11-12T02:00:58.833Z,1012.98
2016-11-12T02:01:58.846Z,1013
2016-11-12T02:02:58.856Z,1012.99
2016-11-12T02:03:58.871Z,1012.97
2016-11-12T02:04:58.883Z,1013.02
2016-11-12T02:05:58.894Z,1012.99
2016-11-12T02:06:58.907Z,1012.99
2016-11-12T02:07:58.921Z,1012.96
2016-11-12T02:08:58.934Z,1012.97
2016-11-12T02:09:58.947Z,1012.96
2016-11-12T02:10:58.957Z,1013
2016-11-12T02:11:58.970Z,1012.99
2016-11-12T02:12:58.984Z,1012.93
2016-11-12T02:13:58.995Z,1012.97
2016-11-12T02:14:59.009Z,1012.95
2016-11-12T02:15:59.020Z,1012.96
2016-11-12T02:16:59.032Z,1012.94
2016-11-12T02:17:59.044Z,1012.97
2016-11-12T02:18:59.057Z,1012.96
2016-11-12T02:19:59.070Z,1012.98
2016-11-12T02:20:59.090Z,1013.02
2016-11-12T02:21:59.094Z,1013.06
2016-11-12T02:22:59.110Z,1013.01
2016-11-12T02:23:59.120Z,1013.01
2016-11-12T02:24:59.131Z,1012.99
2016-11-12T02:25:59.145Z,1013.06
2016-11-12T02:26:59.159Z,1013.07
2016-11-12T02:27:59.168Z,1013.1
2016-11-12T02:28:59.182Z,1013.14
2016-11-12T02:29:59.194Z,1013.14
2016-11-12T02:30:59.205Z,1013.14
2016-11-12T02:31:59.218Z,1013.13
2016-11-12T02:32:59.231Z,1013.13
2016-11-12T02:33:59.245Z,1013.1
2016-11-12T02:34:59.256Z,1013.12
2016-11-12T02:35:59.268Z,1013.13
2016-11-12T02:36:59.282Z,1013.15
2016-11-12T02:37:59.293Z,1013.16
2016-11-12T02:38:59.314Z,1013.17
2016-11-12T02:39:59.318Z,1013.24
2016-11-12T02:40:59.330Z,1013.23
2016-11-12T02:41:59.344Z,1013.21
2016-11-12T02:42:59.355Z,1013.22
2016-11-12T02:43:59.368Z,1013.25
2016-11-12T02:44:59.380Z,1013.22
2016-11-12T02:45:59.393Z,1013.23
2016-11-12T02:46:59.406Z,1013.2
2016-11-12T02:47:59.418Z,1013.25
2016-11-12T02:48:59.430Z,1013.21
2016-11-12T02:49:59.442Z,1013.25
2016-11-12T02:50:59.454Z,1013.22
2016-11-12T02:51:59.467Z,1013.23
2016-11-12T02:52:59.480Z,1013.23
2016-11-12T02:53:59.491Z,1013.29
2016-11-12T02:54:59.504Z,1013.27
2016-11-12T02:55:59.516Z,1013.31
2016-11-12T02:56:59.531Z,1013.34
2016-11-12T02:57:59.542Z,1013.32
2016-11-12T02:58:59.554Z,1013.43
2016-11-12T02:59:59.566Z,1013.38
2016-11-12T03:00:59.579Z,1013.37
2016-11-12T03:01:59.591Z,1013.42
2016-11-12T03:02:59.603Z,1013.42
2016-11-12T03:03:59.616Z,1013.46
2016-11-12T03:04:59.627Z,1013.45
2016-11-12T03:05:59.640Z,1013.48
2016-11-12T03:06:59.654Z,1013.46
2016-11-12T03:07:59.667Z,1013.45
2016-11-12T03:08:59.685Z,1013.5
2016-11-12T03:09:59.691Z,1013.49
2016-11-12T03:10:59.702Z,1013.48
2016-11-12T03:11:59.741Z,1013.49
2016-11-12T03:12:59.727Z,1013.5
2016-11-12T03:13:59.739Z,1013.54
2016-11-12T03:14:59.761Z,1013.55
2016-11-12T03:15:59.764Z,1013.58
2016-11-12T03:16:59.777Z,1013.59
2016-11-12T03:17:59.793Z,1013.58
2016-11-12T03:18:59.804Z,1013.57
2016-11-12T03:19:59.816Z,1013.56
2016-11-12T03:20:59.828Z,1013.58
2016-11-12T03:21:59.840Z,1013.55
2016-11-12T03:22:59.852Z,1013.56
2016-11-12T03:23:59.864Z,1013.6
2016-11-12T03:24:59.881Z,1013.59
2016-11-12T03:25:59.890Z,1013.6
2016-11-12T03:26:59.900Z,1013.58
2016-11-12T03:27:59.914Z,1013.61
2016-11-12T03:28:59.926Z,1013.6
2016-11-12T03:29:59.943Z,1013.64
2016-11-12T03:30:59.950Z,1013.67
2016-11-12T03:31:59.964Z,1013.67
2016-11-12T03:32:59.976Z,1013.7
2016-11-12T03:33:59.987Z,1013.68
2016-11-12T03:35:00.000Z,1013.67
2016-11-12T03:36:00.015Z,1013.65
2016-11-12T03:37:00.025Z,1013.6
2016-11-12T03:38:00.036Z,1013.63
2016-11-12T03:39:00.049Z,1013.63
2016-11-12T03:40:00.064Z,1013.64
2016-11-12T03:41:00.073Z,1013.66
2016-11-12T03:42:00.087Z,1013.68
2016-11-12T03:43:00.099Z,1013.68
2016-11-12T03:44:00.113Z,1013.72
2016-11-12T03:45:00.126Z,1013.69
2016-11-12T03:46:00.136Z,1013.72
2016-11-12T03:47:00.151Z,1013.74
2016-11-12T03:48:00.161Z,1013.72
2016-11-12T03:49:00.173Z,1013.7
2016-11-12T03:50:00.186Z,1013.68
2016-11-12T03:51:00.197Z,1013.66
2016-11-12T03:52:00.211Z,1013.68
2016-11-12T03:53:00.223Z,1013.7
2016-11-12T03:54:00.235Z,1013.7
2016-11-12T03:55:00.247Z,1013.71
2016-11-12T03:56:00.258Z,1013.68
2016-11-12T03:57:00.276Z,1013.66
2016-11-12T03:58:00.284Z,1013.7
2016-11-12T03:59:00.296Z,1013.71
2016-11-12T04:00:00.313Z,1013.71
2016-11-12T04:01:00.321Z,1013.7
2016-11-12T04:02:00.338Z,1013.71
2016-11-12T04:03:00.345Z,1013.73
2016-11-12T04:04:00.358Z,1013.73
2016-11-12T04:05:00.371Z,1013.73
2016-11-12T04:06:00.385Z,1013.72
2016-11-12T04:07:00.393Z,1013.72
2016-11-12T04:08:00.407Z,1013.71
2016-11-12T04:09:00.479Z,1013.75
2016-11-12T04:10:00.432Z,1013.74
2016-11-12T04:11:00.442Z,1013.73
2016-11-12T04:12:00.457Z,1013.76
2016-11-12T04:13:00.470Z,1013.74
2016-11-12T04:14:00.485Z,1013.72
2016-11-12T04:15:00.493Z,1013.76
2016-11-12T04:16:00.505Z,1013.74
2016-11-12T04:17:00.518Z,1013.77
2016-11-12T04:18:00.534Z,1013.76
2016-11-12T04:19:00.543Z,1013.76
2016-11-12T04:20:00.556Z,1013.73
2016-11-12T04:21:00.569Z,1013.75
2016-11-12T04:22:00.584Z,1013.75
2016-11-12T04:23:00.591Z,1013.77
2016-11-12T04:24:00.605Z,1013.79
2016-11-12T04:25:00.616Z,1013.82
2016-11-12T04:26:00.628Z,1013.75
2016-11-12T04:27:00.640Z,1013.82
2016-11-12T04:28:00.657Z,1013.82
2016-11-12T04:29:00.665Z,1013.84
2016-11-12T04:30:00.684Z,1013.83
2016-11-12T04:31:00.690Z,1013.87
2016-11-12T04:32:00.708Z,1013.88
2016-11-12T04:33:00.714Z,1013.88
2016-11-12T04:34:00.729Z,1013.82
2016-11-12T04:35:00.739Z,1013.84
2016-11-12T04:36:00.755Z,1013.85
2016-11-12T04:37:00.763Z,1013.87
2016-11-12T04:38:00.783Z,1013.85
2016-11-12T04:39:00.788Z,1013.86
2016-11-12T04:40:00.800Z,1013.86
2016-11-12T04:41:00.813Z,1013.9
2016-11-12T04:42:00.828Z,1013.9
2016-11-12T04:43:00.837Z,1013.89
2016-11-12T04:44:00.864Z,1013.93
2016-11-12T04:45:00.862Z,1013.92
2016-11-12T04:46:00.874Z,1013.91
2016-11-12T04:47:00.893Z,1013.88
2016-11-12T04:48:00.900Z,1013.89
2016-11-12T04:49:00.910Z,1013.83
2016-11-12T04:50:00.924Z,1013.82
2016-11-12T04:51:00.935Z,1013.89
2016-11-12T04:52:00.964Z,1013.81
2016-11-12T04:53:00.962Z,1013.83
2016-11-12T04:54:00.973Z,1013.77
2016-11-12T04:55:00.988Z,1013.73
2016-11-12T04:56:01.010Z,1013.73
2016-11-12T04:57:01.011Z,1013.78
2016-11-12T04:58:01.027Z,1013.78
2016-11-12T04:59:01.035Z,1013.8
2016-11-12T05:00:01.049Z,1013.8
2016-11-12T05:01:01.066Z,1013.83
2016-11-12T05:02:01.072Z,1013.85
2016-11-12T05:03:01.084Z,1013.86
2016-11-12T05:04:01.100Z,1013.84
2016-11-12T05:05:01.114Z,1013.84
2016-11-12T05:06:01.128Z,1013.89
2016-11-12T05:07:01.133Z,1013.9
2016-11-12T05:08:01.148Z,1013.91
2016-11-12T05:09:01.158Z,1013.87
2016-11-12T05:10:01.293Z,1013.92
2016-11-12T05:11:01.183Z,1013.91
2016-11-12T05:12:01.200Z,1013.9
2016-11-12T05:13:01.207Z,1013.92
2016-11-12T05:14:01.219Z,1013.91
2016-11-12T05:15:01.233Z,1013.86
2016-11-12T05:16:01.243Z,1013.86
2016-11-12T05:17:01.256Z,1013.83
2016-11-12T05:18:01.372Z,1013.83
2016-11-12T05:19:01.284Z,1013.88
2016-11-12T05:20:01.300Z,1013.93
2016-11-12T05:21:01.306Z,1013.93
2016-11-12T05:22:01.319Z,1013.9
2016-11-12T05:23:01.332Z,1013.96
2016-11-12T05:24:01.342Z,1013.95
2016-11-12T05:25:01.359Z,1013.95
2016-11-12T05:26:01.418Z,1013.93
2016-11-12T05:27:01.379Z,1013.92
2016-11-12T05:28:01.400Z,1013.96
2016-11-12T05:29:01.407Z,1013.94
2016-11-12T05:30:01.418Z,1013.9
2016-11-12T05:31:01.429Z,1013.88
2016-11-12T05:32:01.442Z,1013.92
2016-11-12T05:33:01.455Z,1013.89
2016-11-12T05:34:01.473Z,1013.9
2016-11-12T05:35:01.479Z,1013.89
2016-11-12T05:36:01.493Z,1013.94
2016-11-12T05:37:01.504Z,1013.92
2016-11-12T05:38:01.516Z,1013.93
2016-11-12T05:39:01.527Z,1013.95
2016-11-12T05:40:01.542Z,1013.99
2016-11-12T05:41:01.554Z,1013.98
2016-11-12T05:42:01.566Z,1013.97
2016-11-12T05:43:01.581Z,1013.96
2016-11-12T05:44:01.591Z,1013.92
2016-11-12T05:45:01.603Z,1013.91
2016-11-12T05:46:01.615Z,1013.92
2016-11-12T05:47:01.627Z,1013.89
2016-11-12T05:48:01.642Z,1013.89
2016-11-12T05:49:01.651Z,1013.88
2016-11-12T05:50:01.663Z,1013.89
2016-11-12T05:51:01.677Z,1013.89
2016-11-12T05:52:01.688Z,1013.84
2016-11-12T05:53:01.702Z,1013.83
2016-11-12T05:54:01.715Z,1013.81
2016-11-12T05:55:01.727Z,1013.81
2016-11-12T05:56:01.739Z,1013.83
2016-11-12T05:57:01.751Z,1013.79
2016-11-12T05:58:01.763Z,1013.78
2016-11-12T05:59:01.776Z,1013.81
2016-11-12T06:00:01.793Z,1013.77
2016-11-12T06:01:01.800Z,1013.84
2016-11-12T06:02:01.812Z,1013.87
2016-11-12T06:03:01.826Z,1013.89
2016-11-12T06:04:01.837Z,1013.87
2016-11-12T06:05:01.849Z,1013.88
2016-11-12T06:06:01.866Z,1013.9
2016-11-12T06:07:01.876Z,1013.97
2016-11-12T06:08:01.885Z,1014.02
2016-11-12T06:09:01.899Z,1014.01
2016-11-12T06:10:01.912Z,1014.02
2016-11-12T06:11:01.923Z,1014.02
2016-11-12T06:12:01.936Z,1014.03
2016-11-12T06:13:01.948Z,1014.04
2016-11-12T06:14:01.960Z,1014.03
2016-11-12T06:15:01.972Z,1014.04
2016-11-12T06:16:01.985Z,1014.05
2016-11-12T06:17:01.997Z,1014.01
2016-11-12T06:18:02.013Z,1014.02
2016-11-12T06:19:02.024Z,1014.05
2016-11-12T06:20:02.034Z,1014.05
2016-11-12T06:21:02.052Z,1014.07
2016-11-12T06:22:02.059Z,1014.04
2016-11-12T06:23:02.070Z,1014.05
2016-11-12T06:24:02.083Z,1014.05
2016-11-12T06:25:02.099Z,1014.07
2016-11-12T06:26:02.108Z,1014.08
2016-11-12T06:27:02.121Z,1014.1
2016-11-12T06:28:02.132Z,1014.11
2016-11-12T06:29:02.149Z,1014.07
2016-11-12T06:30:02.160Z,1014.09
2016-11-12T06:31:02.171Z,1014.07
2016-11-12T06:32:02.183Z,1014.03
2016-11-12T06:33:02.195Z,1014.05
2016-11-12T06:34:02.208Z,1014.06
2016-11-12T06:35:02.219Z,1014.06
2016-11-12T06:36:02.235Z,1014.06
2016-11-12T06:37:02.245Z,1014.09
2016-11-12T06:38:02.257Z,1014.08
2016-11-12T06:39:02.269Z,1014.12
2016-11-12T06:40:02.281Z,1014.12
2016-11-12T06:41:02.294Z,1014.15
2016-11-12T06:42:02.306Z,1014.06
2016-11-12T06:43:02.319Z,1014.11
2016-11-12T06:44:02.331Z,1014.1
2016-11-12T06:45:02.345Z,1014.09
2016-11-12T06:46:02.358Z,1014.12
2016-11-12T06:47:02.369Z,1014.15
2016-11-12T06:48:02.384Z,1014.17
2016-11-12T06:49:02.394Z,1014.18
2016-11-12T06:50:02.408Z,1014.14
2016-11-12T06:51:02.417Z,1014.18
2016-11-12T06:52:02.430Z,1014.18
2016-11-12T06:53:02.443Z,1014.16
2016-11-12T06:54:02.455Z,1014.17
2016-11-12T06:55:02.476Z,1014.15
2016-11-12T06:56:02.478Z,1014.18
2016-11-12T06:57:02.491Z,1014.2
2016-11-12T06:58:02.504Z,1014.15
2016-11-12T06:59:02.516Z,1014.15
2016-11-12T07:00:02.530Z,1014.12
2016-11-12T07:01:02.542Z,1014.14
2016-11-12T07:02:02.553Z,1014.14
2016-11-12T07:03:02.566Z,1014.13
2016-11-12T07:04:02.580Z,1014.15
2016-11-12T07:05:02.595Z,1014.13
2016-11-12T07:06:02.604Z,1014.13
2016-11-12T07:07:02.615Z,1014.15
2016-11-12T07:08:02.629Z,1014.18
2016-11-12T07:09:02.646Z,1014.17
2016-11-12T07:10:02.856Z,1014.17
2016-11-12T07:11:02.665Z,1014.18
2016-11-12T07:12:02.678Z,1014.17
2016-11-12T07:13:02.689Z,1014.18
2016-11-12T07:14:02.704Z,1014.14
2016-11-12T07:15:02.718Z,1014.18
2016-11-12T07:16:02.733Z,1014.21
2016-11-12T07:17:02.739Z,1014.16
2016-11-12T07:18:02.753Z,1014.13
2016-11-12T07:19:02.764Z,1014.2
2016-11-12T07:20:02.778Z,1014.18
2016-11-12T07:21:02.789Z,1014.21
2016-11-12T07:22:02.802Z,1014.16
2016-11-12T07:23:02.814Z,1014.2
2016-11-12T07:24:02.825Z,1014.2
2016-11-12T07:25:02.838Z,1014.15
2016-11-12T07:26:02.852Z,1014.22
2016-11-12T07:27:02.864Z,1014.24
2016-11-12T07:28:02.877Z,1014.19
2016-11-12T07:29:02.889Z,1014.19
2016-11-12T07:30:02.902Z,1014.17
2016-11-12T07:31:02.914Z,1014.18
2016-11-12T07:32:02.926Z,1014.19
2016-11-12T07:33:02.939Z,1014.21
2016-11-12T07:34:02.952Z,1014.25
2016-11-12T07:35:02.964Z,1014.23
2016-11-12T07:36:02.978Z,1014.21
2016-11-12T07:37:02.995Z,1014.23
2016-11-12T07:38:03.003Z,1014.21
2016-11-12T07:39:03.014Z,1014.21
2016-11-12T07:40:03.035Z,1014.19
2016-11-12T07:41:03.039Z,1014.16
2016-11-12T07:42:03.053Z,1014.15
2016-11-12T07:43:03.063Z,1014.16
2016-11-12T07:44:03.077Z,1014.16
2016-11-12T07:45:03.090Z,1014.13
2016-11-12T07:46:03.101Z,1014.14
2016-11-12T07:47:03.123Z,1014.13
2016-11-12T07:48:03.127Z,1014.15
2016-11-12T07:49:03.140Z,1014.19
2016-11-12T07:50:03.152Z,1014.21
2016-11-12T07:51:03.168Z,1014.21
2016-11-12T07:52:03.177Z,1014.26
2016-11-12T07:53:03.190Z,1014.27
2016-11-12T07:54:03.204Z,1014.26
2016-11-12T07:55:03.214Z,1014.28
2016-11-12T07:56:03.227Z,1014.29
2016-11-12T07:57:03.238Z,1014.25
2016-11-12T07:58:03.254Z,1014.26
2016-11-12T07:59:03.265Z,1014.27
2016-11-12T08:00:03.277Z,1014.27
2016-11-12T08:01:03.290Z,1014.27
2016-11-12T08:02:03.303Z,1014.24
2016-11-12T08:03:03.317Z,1014.25
2016-11-12T08:04:03.328Z,1014.26
2016-11-12T08:05:03.341Z,1014.24
2016-11-12T08:06:03.354Z,1014.28
2016-11-12T08:07:03.368Z,1014.26
2016-11-12T08:08:03.379Z,1014.27
2016-11-12T08:09:03.391Z,1014.32
2016-11-12T08:10:03.404Z,1014.3
2016-11-12T08:11:03.417Z,1014.34
2016-11-12T08:12:03.429Z,1014.34
2016-11-12T08:13:03.442Z,1014.3
2016-11-12T08:14:03.455Z,1014.35
2016-11-12T08:15:03.467Z,1014.4
2016-11-12T08:16:03.479Z,1014.39
2016-11-12T08:17:03.493Z,1014.38
2016-11-12T08:18:03.505Z,1014.41
2016-11-12T08:19:03.517Z,1014.4
2016-11-12T08:20:03.530Z,1014.41
2016-11-12T08:21:03.543Z,1014.39
2016-11-12T08:22:03.557Z,1014.37
2016-11-12T08:23:03.567Z,1014.41
2016-11-12T08:24:03.580Z,1014.41
2016-11-12T08:25:03.593Z,1014.41
2016-11-12T08:26:03.605Z,1014.42
2016-11-12T08:27:03.617Z,1014.48
2016-11-12T08:28:03.635Z,1014.42
2016-11-12T08:29:03.646Z,1014.42
2016-11-12T08:30:03.657Z,1014.42
2016-11-12T08:31:03.668Z,1014.4
2016-11-12T08:32:03.683Z,1014.42
2016-11-12T08:33:03.695Z,1014.45
2016-11-12T08:34:03.707Z,1014.44
2016-11-12T08:35:03.719Z,1014.45
2016-11-12T08:36:03.733Z,1014.48
2016-11-12T08:37:03.745Z,1014.5
2016-11-12T08:38:03.758Z,1014.45
2016-11-12T08:39:03.771Z,1014.48
2016-11-12T08:40:03.785Z,1014.45
2016-11-12T08:41:03.795Z,1014.46
2016-11-12T08:42:03.811Z,1014.49
2016-11-12T08:43:03.823Z,1014.48
2016-11-12T08:44:03.835Z,1014.51
2016-11-12T08:45:03.847Z,1014.5
2016-11-12T08:46:03.859Z,1014.52
2016-11-12T08:47:03.872Z,1014.5
2016-11-12T08:48:03.885Z,1014.55
2016-11-12T08:49:03.899Z,1014.54
2016-11-12T08:50:03.913Z,1014.55
2016-11-12T08:51:03.924Z,1014.58
2016-11-12T08:52:03.936Z,1014.59
2016-11-12T08:53:03.949Z,1014.61
2016-11-12T08:54:03.965Z,1014.58
2016-11-12T08:55:03.977Z,1014.61
2016-11-12T08:56:03.988Z,1014.59
2016-11-12T08:57:04.000Z,1014.63
2016-11-12T08:58:04.012Z,1014.61
2016-11-12T08:59:04.025Z,1014.61
2016-11-12T09:00:04.037Z,1014.6
2016-11-12T09:01:04.057Z,1014.63
2016-11-12T09:02:04.065Z,1014.62
2016-11-12T09:03:04.077Z,1014.61
2016-11-12T09:04:04.092Z,1014.67
2016-11-12T09:05:04.104Z,1014.67
2016-11-12T09:06:04.115Z,1014.67
2016-11-12T09:07:04.128Z,1014.66
2016-11-12T09:08:04.141Z,1014.69
2016-11-12T09:09:04.162Z,1014.69
2016-11-12T09:10:04.166Z,1014.7
2016-11-12T09:11:04.179Z,1014.7
2016-11-12T09:12:04.193Z,1014.71
2016-11-12T09:13:04.206Z,1014.66
2016-11-12T09:14:04.218Z,1014.67
2016-11-12T09:15:04.230Z,1014.69
2016-11-12T09:16:04.244Z,1014.67
2016-11-12T09:17:04.260Z,1014.69
2016-11-12T09:18:04.269Z,1014.71
2016-11-12T09:19:04.282Z,1014.72
2016-11-12T09:20:04.295Z,1014.67
2016-11-12T09:21:04.307Z,1014.7
2016-11-12T09:22:04.324Z,1014.69
2016-11-12T09:23:04.334Z,1014.7
2016-11-12T09:24:04.346Z,1014.69
2016-11-12T09:25:04.358Z,1014.72
2016-11-12T09:26:04.373Z,1014.69
2016-11-12T09:27:04.385Z,1014.69
2016-11-12T09:28:04.398Z,1014.7
2016-11-12T09:29:04.410Z,1014.71
2016-11-12T09:30:04.424Z,1014.73
2016-11-12T09:31:04.436Z,1014.77
2016-11-12T09:32:04.449Z,1014.76
2016-11-12T09:33:04.463Z,1014.79
2016-11-12T09:34:04.475Z,1014.81
2016-11-12T09:35:04.491Z,1014.8
2016-11-12T09:36:04.502Z,1014.77
2016-11-12T09:37:04.517Z,1014.76
2016-11-12T09:38:04.527Z,1014.78
2016-11-12T09:39:04.541Z,1014.75
2016-11-12T09:40:04.556Z,1014.76
2016-11-12T09:41:04.568Z,1014.76
2016-11-12T09:42:04.580Z,1014.76
2016-11-12T09:43:04.594Z,1014.77
2016-11-12T09:44:04.610Z,1014.74
2016-11-12T09:45:04.623Z,1014.79
2016-11-12T09:46:04.634Z,1014.78
2016-11-12T09:47:04.646Z,1014.77
2016-11-12T09:48:04.659Z,1014.79
2016-11-12T09:49:04.672Z,1014.78
2016-11-12T09:50:04.685Z,1014.81
2016-11-12T09:51:04.697Z,1014.75
2016-11-12T09:52:04.713Z,1014.7
2016-11-12T09:53:04.844Z,1014.72
2016-11-12T09:54:04.853Z,1014.73
2016-11-12T09:55:04.861Z,1014.75
2016-11-12T09:56:04.864Z,1014.69
2016-11-12T09:57:04.875Z,1014.74
2016-11-12T09:58:04.877Z,1014.73
2016-11-12T09:59:04.910Z,1014.71
2016-11-12T10:00:04.918Z,1014.77
2016-11-12T10:01:05.047Z,1014.75
2016-11-12T10:02:04.926Z,1014.72
2016-11-12T10:03:04.935Z,1014.73
2016-11-12T10:04:04.979Z,1014.72
2016-11-12T10:05:04.978Z,1014.69
2016-11-12T10:06:05.127Z,1014.67
2016-11-12T10:07:05.021Z,1014.68
2016-11-12T10:08:05.028Z,1014.61
2016-11-12T10:09:05.037Z,1014.61
2016-11-12T10:10:05.047Z,1014.65
2016-11-12T10:11:05.161Z,1014.68
2016-11-12T10:12:04.995Z,1014.71
2016-11-12T10:13:05.062Z,1014.7
2016-11-12T10:14:05.072Z,1014.7
2016-11-12T10:15:05.079Z,1014.68
2016-11-12T10:16:05.274Z,1014.68
2016-11-12T10:17:05.130Z,1014.65
2016-11-12T10:18:05.143Z,1014.63
2016-11-12T10:19:05.144Z,1014.67
2016-11-12T10:20:05.213Z,1014.64
2016-11-12T10:21:05.193Z,1014.55
2016-11-12T10:22:05.160Z,1014.54
2016-11-12T10:23:05.169Z,1014.52
2016-11-12T10:24:05.178Z,1014.55
2016-11-12T10:25:05.189Z,1014.49
2016-11-12T10:26:05.185Z,1014.51
2016-11-12T10:27:05.195Z,1014.54
2016-11-12T10:28:05.210Z,1014.53
2016-11-12T10:29:05.197Z,1014.53
2016-11-12T10:30:05.209Z,1014.47
2016-11-12T10:31:05.227Z,1014.48
2016-11-12T10:32:05.237Z,1014.47
2016-11-12T10:33:05.251Z,1014.48
2016-11-12T10:34:05.263Z,1014.47
2016-11-12T10:35:05.276Z,1014.42
2016-11-12T10:36:05.288Z,1014.45
2016-11-12T10:37:05.303Z,1014.42
2016-11-12T10:38:05.316Z,1014.42
2016-11-12T10:39:05.328Z,1014.42
2016-11-12T10:40:05.343Z,1014.41
2016-11-12T10:41:05.356Z,1014.4
2016-11-12T10:42:05.369Z,1014.42
2016-11-12T10:43:05.385Z,1014.4
2016-11-12T10:44:05.398Z,1014.37
2016-11-12T10:45:05.409Z,1014.33
2016-11-12T10:46:05.422Z,1014.36
2016-11-12T10:47:05.436Z,1014.33
2016-11-12T10:48:05.450Z,1014.34
2016-11-12T10:49:05.462Z,1014.37
2016-11-12T10:50:05.476Z,1014.34
2016-11-12T10:51:05.490Z,1014.32
2016-11-12T10:52:05.503Z,1014.32
2016-11-12T10:53:05.516Z,1014.31
2016-11-12T10:54:05.529Z,1014.32
2016-11-12T10:55:05.542Z,1014.32
2016-11-12T10:56:05.556Z,1014.28
2016-11-12T10:57:05.577Z,1014.28
2016-11-12T10:58:05.583Z,1014.25
2016-11-12T10:59:05.597Z,1014.26
2016-11-12T11:00:05.611Z,1014.22
2016-11-12T11:01:05.624Z,1014.23
2016-11-12T11:02:05.638Z,1014.19
2016-11-12T11:03:05.651Z,1014.2
2016-11-12T11:04:05.665Z,1014.19
2016-11-12T11:05:05.678Z,1014.16
2016-11-12T11:06:05.690Z,1014.17
2016-11-12T11:07:05.703Z,1014.18
2016-11-12T11:08:05.717Z,1014.14
2016-11-12T11:09:05.730Z,1014.11
2016-11-12T11:10:05.746Z,1014.13
2016-11-12T11:11:05.759Z,1014.08
2016-11-12T11:12:05.774Z,1014.1
2016-11-12T11:13:05.786Z,1014.1
2016-11-12T11:14:05.800Z,1014.11
2016-11-12T11:15:05.813Z,1014.11
2016-11-12T11:16:05.827Z,1014.05
2016-11-12T11:17:05.842Z,1014.06
2016-11-12T11:18:05.854Z,1014.05
2016-11-12T11:19:05.867Z,1014.06
2016-11-12T11:20:05.882Z,1014.01
2016-11-12T11:21:05.897Z,1014.01
2016-11-12T11:22:05.909Z,1013.99
2016-11-12T11:23:05.922Z,1014
2016-11-12T11:24:05.936Z,1014
2016-11-12T11:25:05.948Z,1014
2016-11-12T11:26:05.971Z,1014.04
2016-11-12T11:27:05.979Z,1014.04
2016-11-12T11:28:05.992Z,1014.03
2016-11-12T11:29:06.005Z,1014.06
2016-11-12T11:30:06.018Z,1014
2016-11-12T11:31:06.032Z,1014.04
2016-11-12T11:32:06.046Z,1014.03
2016-11-12T11:33:06.059Z,1014.04
2016-11-12T11:34:06.072Z,1014.03
2016-11-12T11:35:06.086Z,1014.02
2016-11-12T11:36:06.100Z,1014.01
2016-11-12T11:37:06.113Z,1014.02
2016-11-12T11:38:06.129Z,1014
2016-11-12T11:39:06.142Z,1014.02
2016-11-12T11:40:06.154Z,1014.01
2016-11-12T11:41:06.169Z,1014
2016-11-12T11:42:06.183Z,1014
2016-11-12T11:43:06.197Z,1013.97
2016-11-12T11:44:06.209Z,1013.95
2016-11-12T11:45:06.223Z,1013.96
2016-11-12T11:46:06.237Z,1013.96
2016-11-12T11:47:06.251Z,1013.95
2016-11-12T11:48:06.264Z,1013.99
2016-11-12T11:49:06.277Z,1013.98
2016-11-12T11:50:06.292Z,1013.96
2016-11-12T11:51:06.306Z,1013.98
2016-11-12T11:52:06.320Z,1013.98
2016-11-12T11:53:06.334Z,1013.99
2016-11-12T11:54:06.347Z,1013.95
2016-11-12T11:55:06.361Z,1013.99
2016-11-12T11:56:06.375Z,1013.95
2016-11-12T11:57:06.391Z,1013.94
2016-11-12T11:58:06.403Z,1013.94
2016-11-12T11:59:06.416Z,1013.96
2016-11-12T12:00:06.430Z,1013.96
2016-11-12T12:01:06.444Z,1013.96
2016-11-12T12:02:06.457Z,1013.89
2016-11-12T12:03:06.471Z,1013.92
2016-11-12T12:04:06.486Z,1013.93
2016-11-12T12:05:06.498Z,1013.89
2016-11-12T12:06:06.514Z,1013.88
2016-11-12T12:07:06.527Z,1013.9
2016-11-12T12:08:06.540Z,1013.89
2016-11-12T12:09:06.556Z,1013.88